Grahn, Kentucky
Current Conditions -  °F | °C
As of 4:15 PM on Sunday 23 Nov 2014 (Local Time) from KDWU Reporting Station
Overcast Overcast  
Wind Chill: 61°   Ceiling: 7000
Heat Index: 61°   Visibility: 10mi
Dew Point: 46°   Wind: 14mph
Humidity: 59%   Direction: 160°SSE
Pressure: 29.72"   Gusts: 18mph
Location:  38.28°N, 83.08°W
Report Text: KDWU 232115Z AUTO 16012G16KT 10SM SCT060 BKN070 OVC080 16/08 A2972 RMK AO1 P0001
Loading
Personal Weather Stations






























Interactive Weather Map New forecast layout! Learn more

10-Day Weather Forecast

Advertisements
Track Severe Weather on mobile